sensor_id;sensor_type;location;lat;lon;timestamp;temperature;humidity
75899;DHT22;64576;50.460;4.866;2023-06-19T00:01:15;18.07;80.96
75899;DHT22;64576;50.460;4.866;2023-06-19T00:03:40;18.07;81.15
75899;DHT22;64576;50.460;4.866;2023-06-19T00:06:06;18.02;81.37
75899;DHT22;64576;50.460;4.866;2023-06-19T00:08:31;18.00;81.59
75899;DHT22;64576;50.460;4.866;2023-06-19T00:10:56;18.00;81.80
75899;DHT22;64576;50.460;4.866;2023-06-19T00:13:22;18.00;81.82
75899;DHT22;64576;50.460;4.866;2023-06-19T00:15:47;18.04;81.79
75899;DHT22;64576;50.460;4.866;2023-06-19T00:18:13;18.02;81.88
75899;DHT22;64576;50.460;4.866;2023-06-19T00:20:38;17.97;82.22
75899;DHT22;64576;50.460;4.866;2023-06-19T00:23:04;17.83;82.63
75899;DHT22;64576;50.460;4.866;2023-06-19T00:25:31;17.76;83.16
75899;DHT22;64576;50.460;4.866;2023-06-19T00:27:56;17.69;83.43
75899;DHT22;64576;50.460;4.866;2023-06-19T00:30:22;17.72;83.54
75899;DHT22;64576;50.460;4.866;2023-06-19T00:32:47;17.80;83.40
75899;DHT22;64576;50.460;4.866;2023-06-19T00:35:15;17.79;83.43
75899;DHT22;64576;50.460;4.866;2023-06-19T00:37:41;17.81;83.63
75899;DHT22;64576;50.460;4.866;2023-06-19T00:40:31;17.77;83.95
75899;DHT22;64576;50.460;4.866;2023-06-19T00:42:57;17.79;84.21
75899;DHT22;64576;50.460;4.866;2023-06-19T00:45:23;17.66;84.55
75899;DHT22;64576;50.460;4.866;2023-06-19T00:47:56;17.62;84.95
75899;DHT22;64576;50.460;4.866;2023-06-19T00:50:22;17.65;85.07
75899;DHT22;64576;50.460;4.866;2023-06-19T00:52:48;17.56;85.40
75899;DHT22;64576;50.460;4.866;2023-06-19T00:55:15;17.50;85.62
75899;DHT22;64576;50.460;4.866;2023-06-19T00:57:41;17.47;85.86
75899;DHT22;64576;50.460;4.866;2023-06-19T01:00:07;17.46;86.14
75899;DHT22;64576;50.460;4.866;2023-06-19T01:02:34;17.46;86.16
75899;DHT22;64576;50.460;4.866;2023-06-19T01:05:00;17.38;86.47
75899;DHT22;64576;50.460;4.866;2023-06-19T01:07:46;17.39;86.61
75899;DHT22;64576;50.460;4.866;2023-06-19T01:10:17;17.31;86.95
75899;DHT22;64576;50.460;4.866;2023-06-19T01:12:59;17.24;87.25
75899;DHT22;64576;50.460;4.866;2023-06-19T01:15:26;17.25;87.41
75899;DHT22;64576;50.460;4.866;2023-06-19T01:17:54;17.22;87.62
75899;DHT22;64576;50.460;4.866;2023-06-19T01:20:20;17.22;87.69
75899;DHT22;64576;50.460;4.866;2023-06-19T01:22:45;17.25;87.85
75899;DHT22;64576;50.460;4.866;2023-06-19T01:25:11;17.34;87.44
75899;DHT22;64576;50.460;4.866;2023-06-19T01:27:40;17.39;87.33
75899;DHT22;64576;50.460;4.866;2023-06-19T01:30:09;17.49;87.04
75899;DHT22;64576;50.460;4.866;2023-06-19T01:32:54;17.50;87.04
75899;DHT22;64576;50.460;4.866;2023-06-19T01:35:25;17.49;87.04
75899;DHT22;64576;50.460;4.866;2023-06-19T01:37:52;17.52;87.04
75899;DHT22;64576;50.460;4.866;2023-06-19T01:40:19;17.55;87.09
75899;DHT22;64576;50.460;4.866;2023-06-19T01:42:48;17.57;87.04
75899;DHT22;64576;50.460;4.866;2023-06-19T01:45:14;17.59;87.10
75899;DHT22;64576;50.460;4.866;2023-06-19T01:47:39;17.56;87.17
75899;DHT22;64576;50.460;4.866;2023-06-19T01:50:05;17.59;87.30
75899;DHT22;64576;50.460;4.866;2023-06-19T01:52:31;17.57;87.41
75899;DHT22;64576;50.460;4.866;2023-06-19T01:54:56;17.55;87.43
75899;DHT22;64576;50.460;4.866;2023-06-19T01:57:22;17.52;87.66
75899;DHT22;64576;50.460;4.866;2023-06-19T01:59:47;17.55;87.68
75899;DHT22;64576;50.460;4.866;2023-06-19T02:02:13;17.56;87.70
75899;DHT22;64576;50.460;4.866;2023-06-19T02:04:38;17.56;87.74
75899;DHT22;64576;50.460;4.866;2023-06-19T02:07:04;17.55;87.83
75899;DHT22;64576;50.460;4.866;2023-06-19T02:09:29;17.53;87.97
75899;DHT22;64576;50.460;4.866;2023-06-19T02:11:55;17.52;87.94
75899;DHT22;64576;50.460;4.866;2023-06-19T02:14:20;17.52;88.04
75899;DHT22;64576;50.460;4.866;2023-06-19T02:16:46;17.56;87.92
75899;DHT22;64576;50.460;4.866;2023-06-19T02:19:11;17.57;87.91
75899;DHT22;64576;50.460;4.866;2023-06-19T02:21:37;17.56;88.02
75899;DHT22;64576;50.460;4.866;2023-06-19T02:24:03;17.57;88.09
75899;DHT22;64576;50.460;4.866;2023-06-19T02:26:29;17.61;88.16
75899;DHT22;64576;50.460;4.866;2023-06-19T02:28:55;17.61;88.15
75899;DHT22;64576;50.460;4.866;2023-06-19T02:31:24;17.59;88.29
75899;DHT22;64576;50.460;4.866;2023-06-19T02:33:50;17.56;88.42
75899;DHT22;64576;50.460;4.866;2023-06-19T02:36:15;17.61;88.49
75899;DHT22;64576;50.460;4.866;2023-06-19T02:38:48;17.56;88.55
75899;DHT22;64576;50.460;4.866;2023-06-19T02:41:13;17.55;88.62
75899;DHT22;64576;50.460;4.866;2023-06-19T02:43:42;17.56;88.64
75899;DHT22;64576;50.460;4.866;2023-06-19T02:46:08;17.57;88.60
75899;DHT22;64576;50.460;4.866;2023-06-19T02:48:34;17.53;88.69
75899;DHT22;64576;50.460;4.866;2023-06-19T02:50:59;17.55;88.80
75899;DHT22;64576;50.460;4.866;2023-06-19T02:53:25;17.53;88.76
75899;DHT22;64576;50.460;4.866;2023-06-19T02:55:50;17.50;88.94
75899;DHT22;64576;50.460;4.866;2023-06-19T02:58:15;17.50;89.02
75899;DHT22;64576;50.460;4.866;2023-06-19T03:00:41;17.53;88.89
75899;DHT22;64576;50.460;4.866;2023-06-19T03:03:06;17.49;89.12
75899;DHT22;64576;50.460;4.866;2023-06-19T03:05:31;17.47;89.23
75899;DHT22;64576;50.460;4.866;2023-06-19T03:07:57;17.45;89.36
75899;DHT22;64576;50.460;4.866;2023-06-19T03:10:22;17.42;89.57
75899;DHT22;64576;50.460;4.866;2023-06-19T03:12:47;17.43;89.60
75899;DHT22;64576;50.460;4.866;2023-06-19T03:15:13;17.46;89.22
75899;DHT22;64576;50.460;4.866;2023-06-19T03:17:39;17.46;89.15
75899;DHT22;64576;50.460;4.866;2023-06-19T03:20:05;17.43;89.34
75899;DHT22;64576;50.460;4.866;2023-06-19T03:22:31;17.45;89.23
75899;DHT22;64576;50.460;4.866;2023-06-19T03:24:57;17.43;89.30
75899;DHT22;64576;50.460;4.866;2023-06-19T03:27:22;17.45;89.29
75899;DHT22;64576;50.460;4.866;2023-06-19T03:29:50;17.46;89.33
75899;DHT22;64576;50.460;4.866;2023-06-19T03:32:15;17.45;89.25
75899;DHT22;64576;50.460;4.866;2023-06-19T03:34:42;17.46;89.28
75899;DHT22;64576;50.460;4.866;2023-06-19T03:37:07;17.46;89.25
75899;DHT22;64576;50.460;4.866;2023-06-19T03:39:32;17.50;89.23
75899;DHT22;64576;50.460;4.866;2023-06-19T03:41:58;17.47;89.24
75899;DHT22;64576;50.460;4.866;2023-06-19T03:44:23;17.50;89.07
75899;DHT22;64576;50.460;4.866;2023-06-19T03:46:48;17.52;89.04
75899;DHT22;64576;50.460;4.866;2023-06-19T03:49:15;17.56;88.80
75899;DHT22;64576;50.460;4.866;2023-06-19T03:51:41;17.56;88.87
75899;DHT22;64576;50.460;4.866;2023-06-19T03:54:06;17.57;88.72
75899;DHT22;64576;50.460;4.866;2023-06-19T03:56:31;17.62;88.47
75899;DHT22;64576;50.460;4.866;2023-06-19T03:58:57;17.59;88.64
75899;DHT22;64576;50.460;4.866;2023-06-19T04:01:22;17.61;88.63
75899;DHT22;64576;50.460;4.866;2023-06-19T04:03:47;17.59;88.56
75899;DHT22;64576;50.460;4.866;2023-06-19T04:06:13;17.61;88.58
75899;DHT22;64576;50.460;4.866;2023-06-19T04:08:38;17.61;88.33
75899;DHT22;64576;50.460;4.866;2023-06-19T04:11:04;17.63;88.21
75899;DHT22;64576;50.460;4.866;2023-06-19T04:13:29;17.69;87.95
75899;DHT22;64576;50.460;4.866;2023-06-19T04:15:54;17.67;88.11
75899;DHT22;64576;50.460;4.866;2023-06-19T04:18:20;17.66;88.22
75899;DHT22;64576;50.460;4.866;2023-06-19T04:20:45;17.63;88.36
75899;DHT22;64576;50.460;4.866;2023-06-19T04:23:11;17.66;88.57
75899;DHT22;64576;50.460;4.866;2023-06-19T04:25:36;17.65;88.41
75899;DHT22;64576;50.460;4.866;2023-06-19T04:28:02;17.65;88.46
75899;DHT22;64576;50.460;4.866;2023-06-19T04:30:30;17.67;88.36
75899;DHT22;64576;50.460;4.866;2023-06-19T04:32:57;17.67;88.35
75899;DHT22;64576;50.460;4.866;2023-06-19T04:35:23;17.65;88.43
75899;DHT22;64576;50.460;4.866;2023-06-19T04:37:49;17.63;88.43
75899;DHT22;64576;50.460;4.866;2023-06-19T04:40:15;17.67;88.39
75899;DHT22;64576;50.460;4.866;2023-06-19T04:42:40;17.69;88.27
75899;DHT22;64576;50.460;4.866;2023-06-19T04:45:06;17.74;88.08
75899;DHT22;64576;50.460;4.866;2023-06-19T04:47:33;17.74;88.00
75899;DHT22;64576;50.460;4.866;2023-06-19T04:50:00;17.83;87.62
75899;DHT22;64576;50.460;4.866;2023-06-19T04:52:25;17.84;87.56
75899;DHT22;64576;50.460;4.866;2023-06-19T04:54:51;17.84;87.51
75899;DHT22;64576;50.460;4.866;2023-06-19T04:57:16;17.90;87.40
75899;DHT22;64576;50.460;4.866;2023-06-19T04:59:43;17.86;87.42
75899;DHT22;64576;50.460;4.866;2023-06-19T05:02:12;17.89;87.40
75899;DHT22;64576;50.460;4.866;2023-06-19T05:04:37;17.87;87.44
75899;DHT22;64576;50.460;4.866;2023-06-19T05:07:03;17.87;87.50
75899;DHT22;64576;50.460;4.866;2023-06-19T05:09:28;17.73;87.89
75899;DHT22;64576;50.460;4.866;2023-06-19T05:11:54;17.69;88.13
75899;DHT22;64576;50.460;4.866;2023-06-19T05:14:19;17.66;88.23
75899;DHT22;64576;50.460;4.866;2023-06-19T05:16:45;17.59;88.58
75899;DHT22;64576;50.460;4.866;2023-06-19T05:19:10;17.66;88.60
75899;DHT22;64576;50.460;4.866;2023-06-19T05:21:36;17.63;88.45
75899;DHT22;64576;50.460;4.866;2023-06-19T05:24:01;17.65;88.42
75899;DHT22;64576;50.460;4.866;2023-06-19T05:26:27;17.67;88.09
75899;DHT22;64576;50.460;4.866;2023-06-19T05:28:52;17.74;87.96
75899;DHT22;64576;50.460;4.866;2023-06-19T05:31:18;17.73;87.77
75899;DHT22;64576;50.460;4.866;2023-06-19T05:33:44;17.90;87.41
75899;DHT22;64576;50.460;4.866;2023-06-19T05:36:09;17.96;86.93
75899;DHT22;64576;50.460;4.866;2023-06-19T05:38:35;18.00;86.65
75899;DHT22;64576;50.460;4.866;2023-06-19T05:41:02;18.14;86.02
75899;DHT22;64576;50.460;4.866;2023-06-19T05:43:27;18.67;84.44
75899;DHT22;64576;50.460;4.866;2023-06-19T05:45:53;19.01;82.57
75899;DHT22;64576;50.460;4.866;2023-06-19T05:48:19;19.70;79.99
75899;DHT22;64576;50.460;4.866;2023-06-19T05:50:45;19.21;81.44
75899;DHT22;64576;50.460;4.866;2023-06-19T05:53:10;19.45;80.25
75899;DHT22;64576;50.460;4.866;2023-06-19T05:55:35;20.09;78.25
75899;DHT22;64576;50.460;4.866;2023-06-19T05:58:02;20.80;76.00
75899;DHT22;64576;50.460;4.866;2023-06-19T06:00:27;21.06;75.14
75899;DHT22;64576;50.460;4.866;2023-06-19T06:02:56;21.85;72.68
75899;DHT22;64576;50.460;4.866;2023-06-19T06:05:23;22.06;71.28
75899;DHT22;64576;50.460;4.866;2023-06-19T06:07:49;22.12;70.95
75899;DHT22;64576;50.460;4.866;2023-06-19T06:10:15;21.81;71.60
75899;DHT22;64576;50.460;4.866;2023-06-19T06:12:42;21.75;71.49
75899;DHT22;64576;50.460;4.866;2023-06-19T06:15:07;21.96;71.12
75899;DHT22;64576;50.460;4.866;2023-06-19T06:17:33;21.83;71.44
75899;DHT22;64576;50.460;4.866;2023-06-19T06:19:58;21.62;71.67
75899;DHT22;64576;50.460;4.866;2023-06-19T06:22:24;21.59;71.70
75899;DHT22;64576;50.460;4.866;2023-06-19T06:24:49;21.74;71.50
75899;DHT22;64576;50.460;4.866;2023-06-19T06:27:14;21.45;72.03
75899;DHT22;64576;50.460;4.866;2023-06-19T06:29:40;21.59;72.00
75899;DHT22;64576;50.460;4.866;2023-06-19T06:32:06;21.30;72.33
75899;DHT22;64576;50.460;4.866;2023-06-19T06:34:33;21.62;71.77
75899;DHT22;64576;50.460;4.866;2023-06-19T06:36:59;21.22;72.68
75899;DHT22;64576;50.460;4.866;2023-06-19T06:39:24;22.10;70.60
75899;DHT22;64576;50.460;4.866;2023-06-19T06:41:50;22.10;70.29
75899;DHT22;64576;50.460;4.866;2023-06-19T06:44:16;22.34;69.83
75899;DHT22;64576;50.460;4.866;2023-06-19T06:46:41;22.82;68.15
75899;DHT22;64576;50.460;4.866;2023-06-19T06:49:07;21.99;69.66
75899;DHT22;64576;50.460;4.866;2023-06-19T06:51:32;21.85;70.33
75899;DHT22;64576;50.460;4.866;2023-06-19T06:53:57;21.62;70.85
75899;DHT22;64576;50.460;4.866;2023-06-19T06:56:23;21.50;70.89
75899;DHT22;64576;50.460;4.866;2023-06-19T06:58:48;21.20;71.78
75899;DHT22;64576;50.460;4.866;2023-06-19T07:01:14;21.54;70.94
75899;DHT22;64576;50.460;4.866;2023-06-19T07:03:39;21.90;70.02
75899;DHT22;64576;50.460;4.866;2023-06-19T07:06:05;21.74;70.09
75899;DHT22;64576;50.460;4.866;2023-06-19T07:08:30;21.55;70.61
75899;DHT22;64576;50.460;4.866;2023-06-19T07:10:56;21.33;71.29
75899;DHT22;64576;50.460;4.866;2023-06-19T07:13:21;20.87;71.24
75899;DHT22;64576;50.460;4.866;2023-06-19T07:15:46;20.83;72.12
75899;DHT22;64576;50.460;4.866;2023-06-19T07:18:12;20.87;72.00
75899;DHT22;64576;50.460;4.866;2023-06-19T07:20:37;21.22;71.04
75899;DHT22;64576;50.460;4.866;2023-06-19T07:23:03;21.71;69.76
75899;DHT22;64576;50.460;4.866;2023-06-19T07:25:28;22.50;68.05
75899;DHT22;64576;50.460;4.866;2023-06-19T07:27:54;21.71;69.10
75899;DHT22;64576;50.460;4.866;2023-06-19T07:30:19;21.92;68.72
75899;DHT22;64576;50.460;4.866;2023-06-19T07:32:45;22.33;68.10
75899;DHT22;64576;50.460;4.866;2023-06-19T07:35:10;22.71;66.88
75899;DHT22;64576;50.460;4.866;2023-06-19T07:37:36;23.51;64.93
75899;DHT22;64576;50.460;4.866;2023-06-19T07:40:02;23.05;65.53
75899;DHT22;64576;50.460;4.866;2023-06-19T07:42:28;22.58;67.31
75899;DHT22;64576;50.460;4.866;2023-06-19T07:44:53;22.55;67.00
75899;DHT22;64576;50.460;4.866;2023-06-19T07:47:19;22.96;66.39
75899;DHT22;64576;50.460;4.866;2023-06-19T07:49:46;23.63;64.48
75899;DHT22;64576;50.460;4.866;2023-06-19T07:52:11;22.65;65.62
75899;DHT22;64576;50.460;4.866;2023-06-19T07:54:54;22.85;65.17
75899;DHT22;64576;50.460;4.866;2023-06-19T07:57:21;21.96;66.88
75899;DHT22;64576;50.460;4.866;2023-06-19T07:59:47;22.55;64.59
75899;DHT22;64576;50.460;4.866;2023-06-19T08:02:13;22.32;64.19
75899;DHT22;64576;50.460;4.866;2023-06-19T08:04:38;23.31;62.05
75899;DHT22;64576;50.460;4.866;2023-06-19T08:07:04;24.36;60.15
75899;DHT22;64576;50.460;4.866;2023-06-19T08:09:29;24.47;60.38
75899;DHT22;64576;50.460;4.866;2023-06-19T08:11:54;23.97;61.88
75899;DHT22;64576;50.460;4.866;2023-06-19T08:14:20;23.19;62.60
75899;DHT22;64576;50.460;4.866;2023-06-19T08:16:45;22.50;64.29
75899;DHT22;64576;50.460;4.866;2023-06-19T08:19:10;23.46;62.54
75899;DHT22;64576;50.460;4.866;2023-06-19T08:21:36;24.39;60.61
75899;DHT22;64576;50.460;4.866;2023-06-19T08:24:01;24.01;60.21
75899;DHT22;64576;50.460;4.866;2023-06-19T08:26:27;23.10;62.83
75899;DHT22;64576;50.460;4.866;2023-06-19T08:28:53;24.05;60.62
75899;DHT22;64576;50.460;4.866;2023-06-19T08:31:18;25.94;56.61
75899;DHT22;64576;50.460;4.866;2023-06-19T08:33:44;26.35;54.89
75899;DHT22;64576;50.460;4.866;2023-06-19T08:36:13;26.70;54.71
75899;DHT22;64576;50.460;4.866;2023-06-19T08:38:39;27.66;51.99
75899;DHT22;64576;50.460;4.866;2023-06-19T08:41:04;27.82;52.44
75899;DHT22;64576;50.460;4.866;2023-06-19T08:43:30;28.08;50.55
75899;DHT22;64576;50.460;4.866;2023-06-19T08:46:16;27.96;51.04
75899;DHT22;64576;50.460;4.866;2023-06-19T08:48:45;28.69;49.59
75899;DHT22;64576;50.460;4.866;2023-06-19T08:51:11;26.43;51.60
75899;DHT22;64576;50.460;4.866;2023-06-19T08:53:45;26.60;52.04
75899;DHT22;64576;50.460;4.866;2023-06-19T08:56:10;26.64;52.57
75899;DHT22;64576;50.460;4.866;2023-06-19T08:58:36;25.77;54.15
75899;DHT22;64576;50.460;4.866;2023-06-19T09:01:02;25.36;54.44
75899;DHT22;64576;50.460;4.866;2023-06-19T09:03:28;24.91;56.34
75899;DHT22;64576;50.460;4.866;2023-06-19T09:05:53;24.88;55.19
75899;DHT22;64576;50.460;4.866;2023-06-19T09:08:20;24.91;56.70
75899;DHT22;64576;50.460;4.866;2023-06-19T09:10:59;25.07;56.38
75899;DHT22;64576;50.460;4.866;2023-06-19T09:13:25;25.60;53.55
75899;DHT22;64576;50.460;4.866;2023-06-19T09:16:05;27.79;49.45
75899;DHT22;64576;50.460;4.866;2023-06-19T09:18:41;28.10;47.86
75899;DHT22;64576;50.460;4.866;2023-06-19T09:21:15;28.35;48.44
75899;DHT22;64576;50.460;4.866;2023-06-19T09:23:40;27.39;49.73
75899;DHT22;64576;50.460;4.866;2023-06-19T09:26:06;27.11;49.25
75899;DHT22;64576;50.460;4.866;2023-06-19T09:28:31;28.49;47.18
75899;DHT22;64576;50.460;4.866;2023-06-19T09:30:59;28.68;47.39
75899;DHT22;64576;50.460;4.866;2023-06-19T09:33:32;27.73;48.95
75899;DHT22;64576;50.460;4.866;2023-06-19T09:35:59;26.32;49.87
75899;DHT22;64576;50.460;4.866;2023-06-19T09:38:28;27.31;48.06
75899;DHT22;64576;50.460;4.866;2023-06-19T09:40:54;27.83;47.21
75899;DHT22;64576;50.460;4.866;2023-06-19T09:43:25;26.72;48.50
75899;DHT22;64576;50.460;4.866;2023-06-19T09:45:54;25.47;52.20
75899;DHT22;64576;50.460;4.866;2023-06-19T09:48:31;24.81;52.93
75899;DHT22;64576;50.460;4.866;2023-06-19T09:53:48;25.18;52.87
75899;DHT22;64576;50.460;4.866;2023-06-19T09:56:15;26.09;50.43
75899;DHT22;64576;50.460;4.866;2023-06-19T09:58:42;26.75;50.21
75899;DHT22;64576;50.460;4.866;2023-06-19T10:01:08;27.30;48.01
75899;DHT22;64576;50.460;4.866;2023-06-19T10:03:35;27.51;47.44
75899;DHT22;64576;50.460;4.866;2023-06-19T10:06:02;27.76;46.67
75899;DHT22;64576;50.460;4.866;2023-06-19T10:08:38;27.70;46.18
75899;DHT22;64576;50.460;4.866;2023-06-19T10:11:04;27.46;48.07
75899;DHT22;64576;50.460;4.866;2023-06-19T10:13:34;27.31;48.38
75899;DHT22;64576;50.460;4.866;2023-06-19T10:16:01;27.48;47.47
75899;DHT22;64576;50.460;4.866;2023-06-19T10:18:27;26.88;48.76
75899;DHT22;64576;50.460;4.866;2023-06-19T10:20:56;26.25;49.32
75899;DHT22;64576;50.460;4.866;2023-06-19T10:23:23;26.22;49.84
75899;DHT22;64576;50.460;4.866;2023-06-19T10:25:59;26.93;48.42
75899;DHT22;64576;50.460;4.866;2023-06-19T10:28:29;26.93;49.47
75899;DHT22;64576;50.460;4.866;2023-06-19T10:30:57;26.67;49.90
75899;DHT22;64576;50.460;4.866;2023-06-19T10:33:31;26.46;50.30
75899;DHT22;64576;50.460;4.866;2023-06-19T10:36:14;26.14;50.70
75899;DHT22;64576;50.460;4.866;2023-06-19T10:38:39;26.32;50.58
75899;DHT22;64576;50.460;4.866;2023-06-19T10:41:05;27.59;48.36
75899;DHT22;64576;50.460;4.866;2023-06-19T10:43:30;29.16;45.74
75899;DHT22;64576;50.460;4.866;2023-06-19T10:45:58;28.89;45.49
75899;DHT22;64576;50.460;4.866;2023-06-19T10:48:25;28.73;45.23
75899;DHT22;64576;50.460;4.866;2023-06-19T10:50:51;29.88;43.19
75899;DHT22;64576;50.460;4.866;2023-06-19T10:53:26;28.86;44.56
75899;DHT22;64576;50.460;4.866;2023-06-19T10:55:59;27.82;47.04
75899;DHT22;64576;50.460;4.866;2023-06-19T10:58:26;28.20;46.69
75899;DHT22;64576;50.460;4.866;2023-06-19T11:00:52;29.38;45.42
75899;DHT22;64576;50.460;4.866;2023-06-19T11:03:19;29.11;44.96
75899;DHT22;64576;50.460;4.866;2023-06-19T11:05:46;28.06;45.80
75899;DHT22;64576;50.460;4.866;2023-06-19T11:08:21;28.58;46.70
75899;DHT22;64576;50.460;4.866;2023-06-19T11:10:46;29.03;46.12
75899;DHT22;64576;50.460;4.866;2023-06-19T11:13:19;30.47;43.47
75899;DHT22;64576;50.460;4.866;2023-06-19T11:15:45;31.61;41.48
75899;DHT22;64576;50.460;4.866;2023-06-19T11:18:11;32.76;39.62
75899;DHT22;64576;50.460;4.866;2023-06-19T11:20:44;30.89;42.11
75899;DHT22;64576;50.460;4.866;2023-06-19T11:23:10;31.30;41.81
75899;DHT22;64576;50.460;4.866;2023-06-19T11:25:40;29.82;43.30
75899;DHT22;64576;50.460;4.866;2023-06-19T11:28:16;30.30;42.27
75899;DHT22;64576;50.460;4.866;2023-06-19T11:30:47;31.49;40.39
75899;DHT22;64576;50.460;4.866;2023-06-19T11:33:20;30.41;42.92
75899;DHT22;64576;50.460;4.866;2023-06-19T11:35:49;30.09;43.38
75899;DHT22;64576;50.460;4.866;2023-06-19T11:38:19;29.66;43.86
75899;DHT22;64576;50.460;4.866;2023-06-19T11:40:45;30.41;43.49
75899;DHT22;64576;50.460;4.866;2023-06-19T11:43:11;31.03;41.67
75899;DHT22;64576;50.460;4.866;2023-06-19T11:45:49;31.05;41.97
75899;DHT22;64576;50.460;4.866;2023-06-19T11:48:21;31.05;41.90
75899;DHT22;64576;50.460;4.866;2023-06-19T11:50:47;33.53;38.18
75899;DHT22;64576;50.460;4.866;2023-06-19T11:53:12;33.69;37.63
75899;DHT22;64576;50.460;4.866;2023-06-19T11:55:38;33.60;37.71
75899;DHT22;64576;50.460;4.866;2023-06-19T11:58:03;34.13;36.86
75899;DHT22;64576;50.460;4.866;2023-06-19T12:00:29;32.49;39.05
75899;DHT22;64576;50.460;4.866;2023-06-19T12:02:54;33.35;38.54
75899;DHT22;64576;50.460;4.866;2023-06-19T12:05:22;32.71;38.68
75899;DHT22;64576;50.460;4.866;2023-06-19T12:07:47;31.57;40.60
75899;DHT22;64576;50.460;4.866;2023-06-19T12:10:12;31.66;40.17
75899;DHT22;64576;50.460;4.866;2023-06-19T12:12:38;32.33;39.80
75899;DHT22;64576;50.460;4.866;2023-06-19T12:15:04;33.52;37.78
75899;DHT22;64576;50.460;4.866;2023-06-19T12:17:30;33.90;37.69
75899;DHT22;64576;50.460;4.866;2023-06-19T12:19:56;33.90;38.22
75899;DHT22;64576;50.460;4.866;2023-06-19T12:22:21;35.44;35.09
75899;DHT22;64576;50.460;4.866;2023-06-19T12:24:47;33.74;37.76
75899;DHT22;64576;50.460;4.866;2023-06-19T12:27:12;33.00;38.75
75899;DHT22;64576;50.460;4.866;2023-06-19T12:29:38;34.35;36.43
75899;DHT22;64576;50.460;4.866;2023-06-19T12:32:03;33.73;37.38
75899;DHT22;64576;50.460;4.866;2023-06-19T12:34:29;33.93;37.54
75899;DHT22;64576;50.460;4.866;2023-06-19T12:36:54;32.70;38.94
75899;DHT22;64576;50.460;4.866;2023-06-19T12:39:20;30.91;41.14
75899;DHT22;64576;50.460;4.866;2023-06-19T12:41:45;29.96;43.72
75899;DHT22;64576;50.460;4.866;2023-06-19T12:44:11;29.17;45.42
75899;DHT22;64576;50.460;4.866;2023-06-19T12:46:36;30.49;42.66
75899;DHT22;64576;50.460;4.866;2023-06-19T12:49:02;31.19;41.67
75899;DHT22;64576;50.460;4.866;2023-06-19T12:51:27;30.65;41.69
75899;DHT22;64576;50.460;4.866;2023-06-19T12:53:53;31.66;39.58
75899;DHT22;64576;50.460;4.866;2023-06-19T12:56:18;31.82;39.21
75899;DHT22;64576;50.460;4.866;2023-06-19T12:58:44;31.82;39.73
75899;DHT22;64576;50.460;4.866;2023-06-19T13:01:09;32.32;39.31
75899;DHT22;64576;50.460;4.866;2023-06-19T13:03:34;32.57;38.68
75899;DHT22;64576;50.460;4.866;2023-06-19T13:06:00;33.46;36.85
75899;DHT22;64576;50.460;4.866;2023-06-19T13:08:25;33.03;37.27
75899;DHT22;64576;50.460;4.866;2023-06-19T13:10:50;31.66;40.04
75899;DHT22;64576;50.460;4.866;2023-06-19T13:13:16;31.91;40.11
75899;DHT22;64576;50.460;4.866;2023-06-19T13:15:41;31.58;39.30
75899;DHT22;64576;50.460;4.866;2023-06-19T13:18:07;30.09;42.27
75899;DHT22;64576;50.460;4.866;2023-06-19T13:20:32;30.27;41.75
75899;DHT22;64576;50.460;4.866;2023-06-19T13:22:57;31.27;40.51
75899;DHT22;64576;50.460;4.866;2023-06-19T13:25:23;32.46;38.82
75899;DHT22;64576;50.460;4.866;2023-06-19T13:27:48;32.78;38.63
75899;DHT22;64576;50.460;4.866;2023-06-19T13:30:14;32.73;38.41
75899;DHT22;64576;50.460;4.866;2023-06-19T13:32:39;32.70;39.18
75899;DHT22;64576;50.460;4.866;2023-06-19T13:35:05;31.80;39.73
75899;DHT22;64576;50.460;4.866;2023-06-19T13:37:34;31.80;40.47
75899;DHT22;64576;50.460;4.866;2023-06-19T13:40:00;31.22;40.89
75899;DHT22;64576;50.460;4.866;2023-06-19T13:42:26;31.57;39.08
75899;DHT22;64576;50.460;4.866;2023-06-19T13:44:52;31.12;40.21
75899;DHT22;64576;50.460;4.866;2023-06-19T13:47:17;30.31;41.56
75899;DHT22;64576;50.460;4.866;2023-06-19T13:49:43;30.99;40.84
75899;DHT22;64576;50.460;4.866;2023-06-19T13:52:08;32.48;39.21
75899;DHT22;64576;50.460;4.866;2023-06-19T13:54:33;33.03;37.83
75899;DHT22;64576;50.460;4.866;2023-06-19T13:56:59;32.56;38.06
75899;DHT22;64576;50.460;4.866;2023-06-19T13:59:24;31.03;40.34
75899;DHT22;64576;50.460;4.866;2023-06-19T14:01:50;30.24;42.28
75899;DHT22;64576;50.460;4.866;2023-06-19T14:04:15;31.49;40.06
75899;DHT22;64576;50.460;4.866;2023-06-19T14:06:40;31.15;40.39
75899;DHT22;64576;50.460;4.866;2023-06-19T14:09:08;30.68;40.82
75899;DHT22;64576;50.460;4.866;2023-06-19T14:11:33;30.21;41.34
75899;DHT22;64576;50.460;4.866;2023-06-19T14:13:59;29.95;42.64
75899;DHT22;64576;50.460;4.866;2023-06-19T14:16:24;30.21;42.45
75899;DHT22;64576;50.460;4.866;2023-06-19T14:18:49;29.14;44.24
75899;DHT22;64576;50.460;4.866;2023-06-19T14:21:15;30.60;41.88
75899;DHT22;64576;50.460;4.866;2023-06-19T14:23:40;31.61;39.64
75899;DHT22;64576;50.460;4.866;2023-06-19T14:26:11;32.61;38.11
75899;DHT22;64576;50.460;4.866;2023-06-19T14:28:37;33.94;36.06
75899;DHT22;64576;50.460;4.866;2023-06-19T14:31:05;34.95;34.99
75899;DHT22;64576;50.460;4.866;2023-06-19T14:33:31;34.87;34.17
75899;DHT22;64576;50.460;4.866;2023-06-19T14:35:58;33.01;36.16
75899;DHT22;64576;50.460;4.866;2023-06-19T14:38:24;34.07;35.91
75899;DHT22;64576;50.460;4.866;2023-06-19T14:40:53;35.51;34.30
75899;DHT22;64576;50.460;4.866;2023-06-19T14:43:18;35.81;33.17
75899;DHT22;64576;50.460;4.866;2023-06-19T14:45:44;35.92;33.58
75899;DHT22;64576;50.460;4.866;2023-06-19T14:48:09;34.53;34.26
75899;DHT22;64576;50.460;4.866;2023-06-19T14:50:34;33.80;35.94
75899;DHT22;64576;50.460;4.866;2023-06-19T14:53:00;33.48;36.12
75899;DHT22;64576;50.460;4.866;2023-06-19T14:55:26;34.65;34.65
75899;DHT22;64576;50.460;4.866;2023-06-19T14:57:51;35.58;33.76
75899;DHT22;64576;50.460;4.866;2023-06-19T15:00:17;34.56;34.35
75899;DHT22;64576;50.460;4.866;2023-06-19T15:02:42;33.55;36.11
75899;DHT22;64576;50.460;4.866;2023-06-19T15:05:08;34.87;33.88
75899;DHT22;64576;50.460;4.866;2023-06-19T15:07:33;33.89;35.38
75899;DHT22;64576;50.460;4.866;2023-06-19T15:09:59;33.31;35.87
75899;DHT22;64576;50.460;4.866;2023-06-19T15:12:24;32.77;35.87
75899;DHT22;64576;50.460;4.866;2023-06-19T15:14:49;32.74;36.04
75899;DHT22;64576;50.460;4.866;2023-06-19T15:17:15;33.10;34.12
75899;DHT22;64576;50.460;4.866;2023-06-19T15:19:40;32.94;34.93
75899;DHT22;64576;50.460;4.866;2023-06-19T15:22:06;33.01;34.39
75899;DHT22;64576;50.460;4.866;2023-06-19T15:24:31;32.78;34.88
75899;DHT22;64576;50.460;4.866;2023-06-19T15:26:56;34.76;33.54
75899;DHT22;64576;50.460;4.866;2023-06-19T15:29:24;34.73;33.32